Pagrindinis puslapis
METAR-TAF:

METAR-TAF

Oro uostai :

Olesiundas, Norvegija

platuma: 62-34N, ilguma: 006-07E, Aukštis: 2 m

Dabartinis oras

Ataskaita buvo paskelbta 27 minutes, ne 19:20 UTC
Vėjas 9 kt iš Šiaurės Rytų
Temperatūra 7°C
Drėgmė 76%
Slėgis 1001 hPa
Matomumas 10 km arba daugiau
Mažai debesys ne aukštis 3000 ft

METAR: ENAL 231920Z 04009KT 9999 FEW030 07/03 Q1001

Laikas: 21:47 (19:47 UTC)

Prognozė

Ataskaita buvo paskelbta 2 valandos ir 47 minutes, ne 17:00 UTC
Prognozė galioja nuo 23 metu 18 UTC su 23 metu 21 UTC
Vėjas 5 kt iš Šiaurės
Matomumas 10 km arba daugiau
Išsisklaidę debesys ne aukštis 3500 ft
Tapsmas
nuo 23 metu 19 UTC su 23 metu 21 UTC
Vėjas 15 kt iš Šiaurės Rytų

TAF: ENAL 231700Z 2318/2321 36005KT 9999 SCT035 BECMG 2319/2321 04015KT

Orai ataskaitas ir orų prognozės (METAR, TAF).

turimą stotys yra geltonos ir raudonos taškus žemėlapyje.

Perkelti pele per norėdami pamatyti stoties vardą.

Tada spustelėkite, norėdami matyti oro stebėjimo ir prognozės.

Norėdami pakeisti žemėlapį: spustelėkite ant žalios mygtukų su juodo kryžiaus žemyn,; žalią mygtuką su brūkšneliu, jei norite nutolinti; arba žalių rodyklių gretimoms žemėlapius.


METAR-TAF: